Time;durP1;ratioP1;P1;durP2;ratioP2;P2;SDS_P1;SDS_P2;PMS_P1;PMS_P2;Temp;Humidity;BMP_temperature;BMP_pressure;BME280_temperature;BME280_humidity;BME280_pressure;Samples;Min_cycle;Max_cycle;Signal;HPM_P1;HPM_P2
2023/04/24 00:00:44;;;;;;;8.77;5.10;;;10.50;99.90;;;;;;5058381;28;20312;-72
2023/04/24 00:03:10;;;;;;;8.32;5.05;;;10.50;99.90;;;;;;5074556;28;20068;-74
2023/04/24 00:05:36;;;;;;;6.33;4.70;;;10.50;99.90;;;;;;5076048;28;20025;-75
2023/04/24 00:08:02;;;;;;;7.93;4.80;;;10.50;99.90;;;;;;5077371;28;20273;-76
2023/04/24 00:10:28;;;;;;;7.37;4.73;;;10.50;99.90;;;;;;5075440;28;20356;-77
2023/04/24 00:12:54;;;;;;;6.13;4.87;;;10.50;99.90;;;;;;5108670;28;20029;-78
2023/04/24 00:15:19;;;;;;;3.60;2.87;;;10.50;99.90;;;;;;5076624;28;20039;-67
2023/04/24 00:17:46;;;;;;;3.13;2.20;;;10.60;99.90;;;;;;5076919;28;20056;-76
2023/04/24 00:20:11;;;;;;;2.03;1.25;;;10.60;99.90;;;;;;5076186;28;20037;-71
2023/04/24 00:22:37;;;;;;;1.60;1.50;;;10.50;99.90;;;;;;5074969;28;20164;-73
2023/04/24 00:25:03;;;;;;;3.87;2.40;;;10.50;99.90;;;;;;5069654;28;20032;-72
2023/04/24 00:27:28;;;;;;;2.60;2.20;;;10.50;99.90;;;;;;5065868;28;20482;-71
2023/04/24 00:29:54;;;;;;;2.03;1.20;;;10.50;99.90;;;;;;5070369;28;20059;-71
2023/04/24 00:32:20;;;;;;;0.90;0.70;;;10.40;99.90;;;;;;5076323;28;20099;-68
2023/04/24 00:34:45;;;;;;;3.67;0.90;;;10.30;99.90;;;;;;5075327;28;20029;-72
2023/04/24 00:37:11;;;;;;;1.40;0.50;;;10.30;99.90;;;;;;5074824;28;20197;-73
2023/04/24 00:39:37;;;;;;;3.20;1.13;;;10.20;99.90;;;;;;5075089;28;20051;-69
2023/04/24 00:42:03;;;;;;;0.57;0.57;;;10.10;99.90;;;;;;5072942;28;20091;-69
2023/04/24 00:44:28;;;;;;;0.93;0.57;;;10.00;99.90;;;;;;5074476;28;20027;-74
2023/04/24 00:46:55;;;;;;;5.57;0.60;;;10.00;99.90;;;;;;5056646;28;20029;-70
2023/04/24 00:49:24;;;;;;;1.67;0.80;;;10.00;99.90;;;;;;5060197;28;20033;-68
2023/04/24 00:51:51;;;;;;;1.48;0.82;;;10.00;99.90;;;;;;5062990;28;20020;-72
2023/04/24 00:54:17;;;;;;;5.38;2.50;;;10.00;99.90;;;;;;5076659;28;20023;-69
2023/04/24 00:56:44;;;;;;;6.07;3.60;;;10.00;99.90;;;;;;5075984;28;20386;-70
2023/04/24 00:59:11;;;;;;;6.47;3.30;;;10.00;99.90;;;;;;5072186;28;20424;-74
2023/04/24 01:01:41;;;;;;;3.72;1.85;;;10.00;99.90;;;;;;5071058;28;20082;-70
2023/04/24 01:04:07;;;;;;;2.60;1.30;;;9.90;99.90;;;;;;5073187;28;20030;-70
2023/04/24 01:06:33;;;;;;;3.00;1.30;;;9.90;99.90;;;;;;5071089;28;20036;-71
2023/04/24 01:09:00;;;;;;;0.70;0.70;;;9.90;99.90;;;;;;5060942;28;20052;-70
2023/04/24 01:11:26;;;;;;;0.60;0.60;;;9.80;99.90;;;;;;5101392;28;20447;-73
2023/04/24 01:13:52;;;;;;;2.37;0.97;;;9.80;99.90;;;;;;5069625;28;20031;-75
2023/04/24 01:16:20;;;;;;;2.28;0.73;;;9.80;99.90;;;;;;5064250;28;20029;-68
2023/04/24 01:18:46;;;;;;;0.50;0.50;;;9.80;99.90;;;;;;5067105;28;20031;-68
2023/04/24 01:21:14;;;;;;;3.33;1.20;;;9.80;99.90;;;;;;5070578;28;20036;-71
2023/04/24 01:23:40;;;;;;;2.10;0.80;;;9.80;99.90;;;;;;5066032;28;20077;-73
2023/04/24 01:26:06;;;;;;;1.00;0.60;;;9.70;99.90;;;;;;5066300;28;20024;-71
2023/04/24 01:28:32;;;;;;;1.75;0.52;;;9.70;99.90;;;;;;5072238;28;20087;-71
2023/04/24 01:30:59;;;;;;;6.07;0.83;;;9.70;99.90;;;;;;5068510;28;20360;-69
2023/04/24 01:33:25;;;;;;;;;;;9.80;99.90;;;;;;5064984;28;20439;-74
2023/04/24 01:35:51;;;;;;;2.10;0.60;;;9.70;99.90;;;;;;5069323;28;19915;-69
2023/04/24 01:38:16;;;;;;;4.47;0.80;;;9.70;99.90;;;;;;5073820;28;20039;-67
2023/04/24 01:40:42;;;;;;;2.17;0.80;;;9.70;99.90;;;;;;5067246;28;20025;-68
2023/04/24 01:43:08;;;;;;;2.87;1.00;;;9.60;99.90;;;;;;5066770;28;20032;-73
2023/04/24 01:45:33;;;;;;;1.53;1.00;;;9.70;99.90;;;;;;5073665;28;20025;-71
2023/04/24 01:48:00;;;;;;;0.70;0.70;;;9.70;99.90;;;;;;5074979;28;20032;-73
2023/04/24 01:50:26;;;;;;;0.98;0.85;;;9.70;99.90;;;;;;5073209;28;20033;-68
2023/04/24 01:52:52;;;;;;;1.53;0.90;;;9.60;99.90;;;;;;5075251;28;20427;-69
2023/04/24 01:55:17;;;;;;;2.70;1.30;;;9.60;99.90;;;;;;5073864;28;20078;-68
2023/04/24 01:57:43;;;;;;;4.70;1.20;;;9.60;99.90;;;;;;5073168;28;20052;-67
2023/04/24 02:00:11;;;;;;;0.73;0.67;;;9.60;99.90;;;;;;5073889;28;20380;-68
2023/04/24 02:02:37;;;;;;;6.50;0.80;;;9.50;99.90;;;;;;5074026;28;20040;-73
2023/04/24 02:05:03;;;;;;;5.90;0.80;;;9.50;99.90;;;;;;5073003;28;20028;-74
2023/04/24 02:07:29;;;;;;;1.90;0.47;;;9.50;99.90;;;;;;5073310;28;20097;-73
2023/04/24 02:09:55;;;;;;;0.93;0.60;;;9.50;99.90;;;;;;5071483;28;20035;-70
2023/04/24 02:12:21;;;;;;;1.73;0.50;;;9.40;99.90;;;;;;5064484;28;20078;-72
2023/04/24 02:14:46;;;;;;;4.17;0.63;;;9.40;99.90;;;;;;5072908;28;20040;-70
2023/04/24 02:17:13;;;;;;;1.07;0.43;;;9.40;99.90;;;;;;5073857;28;20438;-72
2023/04/24 02:19:39;;;;;;;1.75;0.60;;;9.30;99.90;;;;;;5073840;28;20037;-69
2023/04/24 02:22:04;;;;;;;0.63;0.40;;;9.30;99.90;;;;;;5073420;28;20469;-71
2023/04/24 02:24:30;;;;;;;1.40;0.30;;;9.20;99.90;;;;;;5072102;28;20322;-73
2023/04/24 02:26:56;;;;;;;0.23;0.20;;;9.20;99.90;;;;;;5071968;28;20035;-66
2023/04/24 02:29:22;;;;;;;0.30;0.30;;;9.20;99.90;;;;;;5074138;28;20443;-67
2023/04/24 02:31:48;;;;;;;2.17;0.43;;;9.10;99.90;;;;;;5071681;28;20327;-73
2023/04/24 02:34:13;;;;;;;0.20;0.20;;;9.20;99.90;;;;;;5071980;28;20037;-69
2023/04/24 02:36:39;;;;;;;1.13;0.50;;;9.20;99.90;;;;;;5072601;28;20037;-70
2023/04/24 02:39:05;;;;;;;0.50;0.33;;;9.20;99.90;;;;;;5075070;28;20081;-67
2023/04/24 02:41:32;;;;;;;0.30;0.30;;;9.20;99.90;;;;;;5072766;28;20052;-70
2023/04/24 02:43:58;;;;;;;0.30;0.30;;;9.20;99.90;;;;;;5063183;28;20060;-73
2023/04/24 02:46:24;;;;;;;0.70;0.50;;;9.10;99.90;;;;;;5064879;28;20423;-73
2023/04/24 02:48:50;;;;;;;0.97;0.60;;;9.20;99.90;;;;;;5074030;28;20099;-71
2023/04/24 02:51:15;;;;;;;1.50;0.90;;;9.20;99.90;;;;;;5066325;28;20025;-67
2023/04/24 02:53:41;;;;;;;1.67;0.80;;;9.20;99.90;;;;;;5069986;28;20031;-74
2023/04/24 02:56:07;;;;;;;0.57;0.57;;;9.20;99.90;;;;;;5107332;28;20027;-69
2023/04/24 02:58:32;;;;;;;0.63;0.50;;;9.10;99.90;;;;;;5074524;28;20032;-67
2023/04/24 03:00:58;;;;;;;1.73;0.83;;;9.10;99.90;;;;;;5085887;28;20355;-71
2023/04/24 03:03:24;;;;;;;0.67;0.67;;;9.20;99.90;;;;;;5074494;28;20024;-68
2023/04/24 03:05:50;;;;;;;2.33;0.90;;;9.20;99.90;;;;;;5106631;28;20108;-71
2023/04/24 03:08:16;;;;;;;0.87;0.70;;;9.20;99.90;;;;;;5074823;28;20446;-73
2023/04/24 03:10:41;;;;;;;5.30;0.90;;;9.10;99.90;;;;;;5106475;28;20024;-66
2023/04/24 03:13:07;;;;;;;1.70;0.50;;;9.10;99.90;;;;;;5074368;28;20035;-65
2023/04/24 03:15:33;;;;;;;0.70;0.60;;;9.20;99.90;;;;;;5073945;28;20047;-66
2023/04/24 03:18:00;;;;;;;0.67;0.60;;;9.20;99.90;;;;;;5058251;28;20104;-65
2023/04/24 03:20:26;;;;;;;;;;;9.10;99.90;;;;;;5073717;28;20122;-66
2023/04/24 03:22:51;;;;;;;0.95;0.50;;;9.20;99.90;;;;;;5073369;28;19912;-66
2023/04/24 03:25:17;;;;;;;1.67;0.80;;;9.20;99.90;;;;;;5069985;28;20435;-65
2023/04/24 03:27:43;;;;;;;2.70;0.90;;;9.10;99.90;;;;;;5072869;28;20077;-66
2023/04/24 03:30:10;;;;;;;0.77;0.70;;;9.00;99.90;;;;;;5070704;28;20037;-65
2023/04/24 03:32:35;;;;;;;2.58;0.70;;;9.10;99.90;;;;;;5073629;28;20124;-66
2023/04/24 03:35:01;;;;;;;1.50;0.70;;;9.10;99.90;;;;;;5070984;28;20107;-65
2023/04/24 03:37:27;;;;;;;1.10;1.00;;;9.10;99.90;;;;;;5073080;28;20454;-66
2023/04/24 03:39:52;;;;;;;0.63;0.60;;;9.10;99.90;;;;;;5063081;28;20033;-66
2023/04/24 03:42:18;;;;;;;4.13;1.10;;;9.10;99.90;;;;;;5065635;28;20017;-67
2023/04/24 03:44:44;;;;;;;1.20;0.70;;;9.10;99.90;;;;;;5066239;28;20082;-74
2023/04/24 03:47:09;;;;;;;6.33;1.20;;;9.20;99.90;;;;;;5071224;28;20107;-66
2023/04/24 03:49:35;;;;;;;1.23;0.80;;;9.20;99.90;;;;;;5073206;28;20312;-65
2023/04/24 03:52:01;;;;;;;3.90;1.00;;;9.20;99.90;;;;;;5067997;28;20029;-65
2023/04/24 03:54:27;;;;;;;2.80;1.30;;;9.10;99.90;;;;;;5058688;28;20119;-74
2023/04/24 03:56:52;;;;;;;1.40;1.13;;;9.10;99.90;;;;;;5062084;28;20036;-67
2023/04/24 03:59:18;;;;;;;0.60;0.60;;;9.20;99.90;;;;;;5062559;28;20029;-65
2023/04/24 04:01:45;;;;;;;2.90;1.60;;;9.20;99.90;;;;;;5064960;28;20021;-66
2023/04/24 04:04:11;;;;;;;5.65;1.40;;;9.10;99.90;;;;;;5069666;28;20024;-66
2023/04/24 04:06:36;;;;;;;4.37;2.03;;;9.10;99.90;;;;;;5060337;28;20029;-66
2023/04/24 04:09:03;;;;;;;1.73;1.40;;;9.10;99.90;;;;;;5061421;28;20032;-65
2023/04/24 04:11:29;;;;;;;2.03;1.25;;;9.10;99.90;;;;;;5068096;28;20024;-68
2023/04/24 04:13:55;;;;;;;1.35;1.13;;;9.10;99.90;;;;;;5068135;28;20052;-66
2023/04/24 04:16:21;;;;;;;1.47;1.20;;;9.10;99.90;;;;;;5072449;28;20067;-66
2023/04/24 04:18:46;;;;;;;1.97;1.10;;;9.10;99.90;;;;;;5076833;28;20070;-66
2023/04/24 04:21:12;;;;;;;1.90;1.30;;;9.10;99.90;;;;;;5076084;28;20062;-67
2023/04/24 04:23:37;;;;;;;1.30;1.20;;;9.00;99.90;;;;;;5074226;28;20048;-67
2023/04/24 04:26:04;;;;;;;1.10;0.90;;;9.00;99.90;;;;;;5075952;28;20035;-65
2023/04/24 04:28:33;;;;;;;;;;;9.00;99.90;;;;;;5075382;28;20128;-67
2023/04/24 04:30:58;;;;;;;2.80;1.60;;;9.00;99.90;;;;;;5070854;28;20008;-66
2023/04/24 04:33:25;;;;;;;3.23;1.80;;;9.00;99.90;;;;;;5065547;28;20099;-66
2023/04/24 04:35:56;;;;;;;2.15;1.67;;;8.90;99.90;;;;;;5065437;28;20314;-66
2023/04/24 04:38:22;;;;;;;7.00;1.70;;;8.90;99.90;;;;;;5062288;28;20029;-66
2023/04/24 04:40:48;;;;;;;2.10;1.00;;;8.90;99.90;;;;;;5064717;28;20031;-66
2023/04/24 04:43:17;;;;;;;2.90;1.17;;;8.90;99.90;;;;;;5075588;28;20036;-67
2023/04/24 04:45:43;;;;;;;4.03;1.08;;;8.90;99.90;;;;;;5070557;28;20056;-66
2023/04/24 04:48:12;;;;;;;1.63;1.00;;;8.80;99.90;;;;;;5072782;28;20053;-66
2023/04/24 04:50:38;;;;;;;1.65;0.80;;;8.80;99.90;;;;;;5072918;28;20016;-67
2023/04/24 04:53:03;;;;;;;2.00;1.10;;;8.90;99.90;;;;;;5067029;28;20125;-74
2023/04/24 04:55:29;;;;;;;1.53;0.83;;;8.90;99.90;;;;;;5069974;28;20028;-67
2023/04/24 04:57:56;;;;;;;1.15;1.02;;;8.80;99.90;;;;;;5065760;28;20020;-66
2023/04/24 05:00:21;;;;;;;1.27;0.90;;;8.80;99.90;;;;;;5059908;28;20033;-66
2023/04/24 05:02:47;;;;;;;1.30;0.70;;;8.80;99.90;;;;;;5076452;28;20260;-66
2023/04/24 05:05:13;;;;;;;1.93;0.70;;;8.80;99.90;;;;;;5072223;28;20463;-66
2023/04/24 05:07:38;;;;;;;1.07;0.70;;;8.80;99.90;;;;;;5071683;28;20033;-66
2023/04/24 05:10:05;;;;;;;0.97;0.60;;;8.70;99.90;;;;;;5061064;28;20056;-66
2023/04/24 05:12:30;;;;;;;0.50;0.50;;;8.80;99.90;;;;;;5072528;28;20036;-67
2023/04/24 05:14:56;;;;;;;0.67;0.40;;;8.70;99.90;;;;;;5069663;28;20028;-67
2023/04/24 05:17:22;;;;;;;1.53;0.43;;;8.70;99.90;;;;;;5074820;28;20028;-67
2023/04/24 05:19:48;;;;;;;0.40;0.40;;;8.70;99.90;;;;;;5073376;28;20037;-76
2023/04/24 05:22:13;;;;;;;0.60;0.60;;;8.80;99.90;;;;;;5073709;28;20416;-67
2023/04/24 05:24:39;;;;;;;1.37;0.60;;;8.70;99.90;;;;;;5070449;28;20589;-68
2023/04/24 05:27:05;;;;;;;0.83;0.60;;;8.80;99.90;;;;;;5074531;28;20040;-67
2023/04/24 05:29:32;;;;;;;1.55;0.40;;;8.80;99.90;;;;;;5068650;28;20423;-68
2023/04/24 05:31:59;;;;;;;0.75;0.40;;;8.70;99.90;;;;;;5071042;28;20032;-67
2023/04/24 05:34:25;;;;;;;0.40;0.40;;;8.70;99.90;;;;;;5064829;28;20431;-69
2023/04/24 05:36:51;;;;;;;1.23;0.50;;;8.70;99.90;;;;;;5073361;28;20123;-68
2023/04/24 05:39:17;;;;;;;4.13;0.60;;;8.70;99.90;;;;;;5061209;28;20354;-68
2023/04/24 05:41:43;;;;;;;0.53;0.53;;;8.70;99.90;;;;;;5063638;28;20036;-69
2023/04/24 05:44:09;;;;;;;0.65;0.60;;;8.70;99.90;;;;;;5066800;28;20277;-68
2023/04/24 05:46:35;;;;;;;1.00;0.90;;;8.70;99.90;;;;;;5065321;28;20047;-68
2023/04/24 05:49:01;;;;;;;0.70;0.67;;;8.70;99.90;;;;;;5075152;28;20033;-68
2023/04/24 05:51:27;;;;;;;3.88;2.53;;;8.70;99.90;;;;;;5066569;28;20025;-74
2023/04/24 05:53:53;;;;;;;5.90;3.13;;;8.80;99.90;;;;;;5069910;28;20032;-78
2023/04/24 05:56:20;;;;;;;10.23;5.40;;;8.70;99.90;;;;;;5062752;28;20017;-65
2023/04/24 05:58:46;;;;;;;12.57;7.50;;;8.60;99.90;;;;;;5069510;28;20063;-66
2023/04/24 06:01:14;;;;;;;15.52;6.28;;;8.60;99.90;;;;;;5065489;28;20021;-67
2023/04/24 06:03:41;;;;;;;20.10;8.73;;;8.50;99.90;;;;;;5058114;28;20093;-65
2023/04/24 06:06:07;;;;;;;19.35;8.73;;;8.50;99.90;;;;;;5073724;28;20029;-65
2023/04/24 06:08:33;;;;;;;21.20;10.27;;;8.50;99.90;;;;;;5069839;28;20039;-66
2023/04/24 06:10:59;;;;;;;23.87;9.50;;;8.50;99.90;;;;;;5068216;28;20036;-68
2023/04/24 06:13:25;;;;;;;18.67;10.50;;;8.50;99.90;;;;;;5069732;28;20039;-67
2023/04/24 06:15:53;;;;;;;21.30;9.70;;;8.50;99.90;;;;;;5071082;28;20052;-68
2023/04/24 06:18:18;;;;;;;18.55;8.40;;;8.50;99.90;;;;;;5072929;28;20097;-66
2023/04/24 06:20:45;;;;;;;20.70;9.63;;;8.50;99.90;;;;;;5069643;28;20487;-67
2023/04/24 06:23:11;;;;;;;20.33;8.43;;;8.50;99.90;;;;;;5071105;28;20017;-65
2023/04/24 06:25:37;;;;;;;17.57;8.03;;;8.50;99.90;;;;;;5065081;28;20419;-67
2023/04/24 06:28:03;;;;;;;17.55;8.77;;;8.40;99.90;;;;;;5068428;28;20029;-67
2023/04/24 06:30:29;;;;;;;23.97;7.73;;;8.50;99.90;;;;;;5071967;28;20032;-68
2023/04/24 06:32:55;;;;;;;20.13;9.63;;;8.50;99.90;;;;;;5069888;28;20107;-67
2023/04/24 06:35:21;;;;;;;17.80;8.63;;;8.40;99.90;;;;;;5098603;28;20024;-65
2023/04/24 06:37:46;;;;;;;14.13;6.80;;;8.40;99.90;;;;;;5067263;28;20556;-65
2023/04/24 06:40:12;;;;;;;23.47;9.30;;;8.40;99.90;;;;;;5070210;28;20043;-68
2023/04/24 06:42:38;;;;;;;24.80;7.70;;;8.40;99.90;;;;;;5067754;28;20028;-67
2023/04/24 06:45:05;;;;;;;21.03;7.47;;;8.40;99.90;;;;;;5069484;28;20576;-76
2023/04/24 06:47:30;;;;;;;11.23;6.57;;;8.40;99.90;;;;;;5068550;28;20097;-64
2023/04/24 06:49:56;;;;;;;15.57;7.60;;;8.40;99.90;;;;;;5072191;28;20407;-65
2023/04/24 06:52:22;;;;;;;15.53;7.80;;;8.40;99.90;;;;;;5072562;28;20024;-65
2023/04/24 06:54:48;;;;;;;21.33;7.57;;;8.40;99.90;;;;;;5066980;28;20316;-66
2023/04/24 06:57:14;;;;;;;10.17;6.30;;;8.40;99.90;;;;;;5072754;28;20402;-66
2023/04/24 06:59:39;;;;;;;13.10;7.63;;;8.40;99.90;;;;;;5077099;28;20028;-64
2023/04/24 07:02:05;;;;;;;11.53;4.73;;;8.40;99.90;;;;;;5068428;28;20037;-73
2023/04/24 07:04:32;;;;;;;21.05;8.05;;;8.40;99.90;;;;;;5063791;28;20029;-65
2023/04/24 07:06:58;;;;;;;14.27;6.53;;;8.40;99.90;;;;;;5072669;28;20085;-64
2023/04/24 07:09:25;;;;;;;26.07;6.73;;;8.40;99.90;;;;;;5066291;28;20315;-64
2023/04/24 07:11:53;;;;;;;;;;;8.40;99.90;;;;;;5064027;28;20028;-64
2023/04/24 07:14:20;;;;;;;19.10;7.07;;;8.40;99.90;;;;;;5066122;28;20492;-65
2023/04/24 07:16:46;;;;;;;16.65;6.78;;;8.50;99.90;;;;;;5064798;28;20043;-64
2023/04/24 07:19:13;;;;;;;12.57;7.33;;;8.40;99.90;;;;;;5064830;28;20025;-64
2023/04/24 07:21:38;;;;;;;16.90;6.00;;;8.40;99.90;;;;;;5061778;28;20373;-64
2023/04/24 07:24:04;;;;;;;16.90;6.10;;;8.50;99.90;;;;;;5071237;28;20032;-64
2023/04/24 07:26:30;;;;;;;15.97;5.80;;;8.50;99.90;;;;;;5072761;28;20020;-64
2023/04/24 07:28:56;;;;;;;9.10;5.23;;;8.50;99.90;;;;;;5059813;28;20048;-64
2023/04/24 07:31:22;;;;;;;27.33;5.47;;;8.50;99.90;;;;;;5065403;28;20056;-63
2023/04/24 07:33:48;;;;;;;14.50;5.67;;;8.50;99.90;;;;;;5057136;28;20021;-63
2023/04/24 07:36:16;;;;;;;14.13;5.47;;;8.50;99.90;;;;;;5071896;28;20052;-73
2023/04/24 07:38:46;;;;;;;14.52;5.57;;;8.50;99.90;;;;;;5072720;28;20017;-66
2023/04/24 07:41:13;;;;;;;23.50;5.30;;;8.40;99.90;;;;;;5070254;28;20048;-65
2023/04/24 07:43:39;;;;;;;13.23;3.90;;;8.40;99.90;;;;;;5069810;28;20017;-64
2023/04/24 07:46:06;;;;;;;14.93;4.73;;;8.40;99.90;;;;;;5069000;28;20028;-66
2023/04/24 07:48:32;;;;;;;12.98;3.83;;;8.30;99.90;;;;;;5075335;28;20712;-65
2023/04/24 07:50:57;;;;;;;13.97;4.50;;;8.30;99.90;;;;;;5073648;28;20107;-65
2023/04/24 07:53:24;;;;;;;11.23;4.80;;;8.30;99.90;;;;;;5069982;28;20113;-64
2023/04/24 07:55:50;;;;;;;;;;;8.30;99.90;;;;;;5074802;28;20057;-65
2023/04/24 07:58:15;;;;;;;11.10;3.10;;;8.20;99.90;;;;;;5073433;28;20305;-64
2023/04/24 08:00:41;;;;;;;6.93;3.37;;;8.30;99.90;;;;;;5074411;28;20033;-66
2023/04/24 08:03:07;;;;;;;11.97;2.70;;;8.20;99.90;;;;;;5063236;28;20423;-65
2023/04/24 08:05:32;;;;;;;12.57;2.40;;;8.30;99.90;;;;;;5070532;28;20164;-65
2023/04/24 08:07:58;;;;;;;20.07;3.23;;;8.10;99.90;;;;;;5064083;28;20037;-66
2023/04/24 08:10:25;;;;;;;11.87;2.67;;;8.10;99.90;;;;;;5073975;28;20450;-65
2023/04/24 08:12:50;;;;;;;20.75;3.40;;;8.10;99.90;;;;;;5075149;28;20028;-64
2023/04/24 08:15:16;;;;;;;14.17;3.53;;;8.20;99.90;;;;;;5070005;28;20324;-73
2023/04/24 08:17:42;;;;;;;12.53;3.10;;;8.20;99.90;;;;;;5067108;28;20033;-65
2023/04/24 08:20:13;;;;;;;12.40;2.97;;;8.20;99.90;;;;;;5075466;28;20054;-64
2023/04/24 08:22:43;;;;;;;25.63;3.72;;;8.20;99.90;;;;;;5071582;28;20125;-66
2023/04/24 08:25:09;;;;;;;17.58;3.45;;;8.20;99.90;;;;;;5067903;28;20028;-63
2023/04/24 08:27:36;;;;;;;23.25;4.65;;;8.20;99.90;;;;;;5076573;28;20426;-64
2023/04/24 08:30:03;;;;;;;19.45;3.75;;;8.30;99.90;;;;;;5073910;28;20090;-65
2023/04/24 08:32:29;;;;;;;;;;;8.40;99.90;;;;;;5073880;28;20035;-66
2023/04/24 08:34:56;;;;;;;20.98;2.85;;;8.40;99.90;;;;;;5073698;28;19908;-72
2023/04/24 08:37:22;;;;;;;;;;;8.30;99.90;;;;;;5067418;28;20503;-73
2023/04/24 08:39:48;;;;;;;10.48;2.58;;;8.30;99.90;;;;;;5072890;28;19909;-63
2023/04/24 08:42:15;;;;;;;21.50;3.03;;;8.30;99.90;;;;;;5108941;28;20061;-64
2023/04/24 08:44:40;;;;;;;;;;;8.30;99.90;;;;;;5077188;28;20066;-63
2023/04/24 08:47:07;;;;;;;14.10;2.20;;;8.30;99.90;;;;;;5062984;28;19916;-64
2023/04/24 08:49:33;;;;;;;;;;;8.50;99.90;;;;;;5077219;28;20031;-64
2023/04/24 08:52:01;;;;;;;7.40;2.13;;;8.50;99.90;;;;;;5073681;28;19911;-63
2023/04/24 08:54:28;;;;;;;5.35;2.00;;;8.50;99.90;;;;;;5074973;28;20043;-64
2023/04/24 08:56:57;;;;;;;7.32;2.08;;;8.60;99.90;;;;;;5070435;28;20028;-64
2023/04/24 08:59:23;;;;;;;10.93;2.17;;;8.60;99.90;;;;;;5075531;28;20052;-71
2023/04/24 09:01:52;;;;;;;8.07;1.97;;;8.60;99.90;;;;;;5074500;28;20031;-64
2023/04/24 09:04:21;;;;;;;14.55;2.75;;;8.60;99.90;;;;;;5075834;28;20458;-62
2023/04/24 09:06:51;;;;;;;16.98;2.33;;;8.70;99.90;;;;;;5066480;28;20032;-64
2023/04/24 09:09:18;;;;;;;13.82;2.90;;;8.60;99.90;;;;;;5068528;28;20029;-64
2023/04/24 09:11:44;;;;;;;11.27;2.72;;;8.50;99.90;;;;;;5071246;28;20070;-64
2023/04/24 09:14:10;;;;;;;7.95;1.80;;;8.50;99.90;;;;;;5073691;28;20029;-63
2023/04/24 09:16:36;;;;;;;11.10;2.60;;;8.40;99.90;;;;;;5074265;28;20585;-64
2023/04/24 09:19:03;;;;;;;11.55;1.88;;;8.40;99.90;;;;;;5072215;28;20041;-63
2023/04/24 09:21:33;;;;;;;6.53;2.20;;;8.40;99.90;;;;;;5074542;28;20036;-63
2023/04/24 09:24:05;;;;;;;4.72;1.98;;;8.40;99.90;;;;;;5075066;28;20021;-72
2023/04/24 09:26:35;;;;;;;7.57;2.10;;;8.40;99.90;;;;;;5071132;28;20020;-64
2023/04/24 09:29:01;;;;;;;15.07;1.92;;;8.40;99.90;;;;;;5075021;28;20435;-64
2023/04/24 09:31:30;;;;;;;12.00;1.80;;;8.60;99.90;;;;;;5074819;28;20039;-72
2023/04/24 09:34:03;;;;;;;18.95;2.25;;;8.60;99.90;;;;;;5075290;28;20470;-62
2023/04/24 09:36:36;;;;;;;6.28;2.05;;;8.80;99.90;;;;;;5070864;28;20028;-65
2023/04/24 09:39:04;;;;;;;4.80;1.88;;;8.90;99.90;;;;;;5071385;28;20139;-62
2023/04/24 09:41:31;;;;;;;10.48;2.17;;;9.00;99.90;;;;;;5072202;28;20060;-63
2023/04/24 09:44:01;;;;;;;11.52;2.97;;;9.10;99.90;;;;;;5068959;28;20036;-63
2023/04/24 09:46:33;;;;;;;10.13;2.05;;;9.10;99.90;;;;;;5066025;28;20096;-71
2023/04/24 09:49:08;;;;;;;7.68;2.00;;;9.20;99.90;;;;;;5097078;28;20071;-63
2023/04/24 09:51:38;;;;;;;5.65;1.55;;;9.30;99.90;;;;;;5068299;28;20358;-64
2023/04/24 09:54:12;;;;;;;3.63;1.38;;;9.20;99.90;;;;;;5065198;28;20017;-63
2023/04/24 09:56:44;;;;;;;4.50;1.58;;;9.20;99.90;;;;;;5070034;28;20028;-62
2023/04/24 09:59:10;;;;;;;9.25;1.73;;;9.20;99.90;;;;;;5066341;28;20033;-65
2023/04/24 10:01:38;;;;;;;5.88;1.20;;;9.10;99.90;;;;;;5065087;28;20411;-64
2023/04/24 10:04:06;;;;;;;9.63;1.52;;;9.20;99.90;;;;;;5065810;28;20055;-63
2023/04/24 10:06:35;;;;;;;8.80;1.30;;;9.30;99.90;;;;;;5070134;28;20048;-63
2023/04/24 10:09:01;;;;;;;12.65;1.98;;;9.50;99.90;;;;;;5072758;28;20020;-65
2023/04/24 10:11:28;;;;;;;4.35;1.40;;;9.70;99.90;;;;;;5073032;28;20074;-63
2023/04/24 10:13:55;;;;;;;3.53;1.20;;;9.70;99.90;;;;;;5073563;28;20427;-63
2023/04/24 10:16:23;;;;;;;;;;;9.80;99.90;;;;;;5075133;28;20024;-63
2023/04/24 10:18:49;;;;;;;5.28;1.10;;;9.90;99.90;;;;;;5065936;28;19966;-63
2023/04/24 10:21:17;;;;;;;9.98;1.70;;;9.80;99.90;;;;;;5067818;28;20020;-63
2023/04/24 10:23:42;;;;;;;8.05;1.05;;;9.60;99.90;;;;;;5074171;28;20028;-73
2023/04/24 10:26:17;;;;;;;5.40;0.97;;;9.50;99.90;;;;;;5077127;28;20028;-63
2023/04/24 10:28:45;;;;;;;3.45;1.08;;;9.40;99.90;;;;;;5057604;28;20703;-62
2023/04/24 10:31:12;;;;;;;5.82;0.98;;;9.30;99.90;;;;;;5073673;28;20016;-64
2023/04/24 10:33:41;;;;;;;3.03;0.60;;;9.20;99.90;;;;;;5071358;28;20024;-63
2023/04/24 10:36:08;;;;;;;3.25;0.80;;;8.90;99.90;;;;;;5071027;28;20062;-63
2023/04/24 10:38:35;;;;;;;5.13;0.85;;;9.00;99.90;;;;;;5067134;28;20028;-73
2023/04/24 10:41:16;;;;;;;1.65;0.52;;;8.90;99.90;;;;;;5072330;28;20032;-63
2023/04/24 10:43:42;;;;;;;5.45;1.15;;;8.90;99.90;;;;;;5070107;28;20025;-62
2023/04/24 10:46:10;;;;;;;6.07;0.90;;;9.20;99.90;;;;;;5061505;28;20562;-71
2023/04/24 10:48:41;;;;;;;8.43;1.17;;;9.40;99.90;;;;;;5065446;28;20373;-64
2023/04/24 10:51:12;;;;;;;7.22;0.60;;;9.50;99.90;;;;;;5073611;28;20293;-63
2023/04/24 10:53:38;;;;;;;8.82;1.50;;;9.60;99.90;;;;;;5074360;28;20028;-62
2023/04/24 10:56:07;;;;;;;5.90;0.97;;;9.40;99.90;;;;;;5074169;28;20289;-63
2023/04/24 10:58:47;;;;;;;1.92;0.82;;;9.90;99.90;;;;;;5072982;28;20055;-63
2023/04/24 11:01:31;;;;;;;6.53;0.90;;;10.20;99.90;;;;;;5065879;28;20044;-63
2023/04/24 11:03:59;;;;;;;1.85;0.50;;;10.60;99.90;;;;;;5074461;28;20060;-63
2023/04/24 11:06:37;;;;;;;5.10;0.82;;;10.90;99.90;;;;;;5071482;28;20035;-73
2023/04/24 11:09:08;;;;;;;4.57;1.15;;;11.10;99.90;;;;;;5068460;28;20331;-63
2023/04/24 11:11:35;;;;;;;3.97;0.70;;;11.00;99.90;;;;;;5071559;28;20063;-62
2023/04/24 11:14:08;;;;;;;4.35;1.15;;;10.70;99.90;;;;;;5102433;28;20028;-73
2023/04/24 11:16:54;;;;;;;7.20;0.85;;;10.50;99.90;;;;;;5073381;28;20365;-62
2023/04/24 11:19:25;;;;;;;5.78;0.68;;;10.80;99.90;;;;;;5102447;28;20441;-64
2023/04/24 11:22:13;;;;;;;3.55;0.50;;;11.10;99.90;;;;;;5085857;28;20034;-62
2023/04/24 11:24:49;;;;;;;3.63;0.30;;;11.20;99.90;;;;;;5074977;28;20024;-64
2023/04/24 11:27:19;;;;;;;4.68;0.75;;;11.10;99.90;;;;;;5074444;28;20086;-73
2023/04/24 11:29:57;;;;;;;2.15;0.75;;;11.00;99.90;;;;;;5069541;28;20053;-63
2023/04/24 11:32:36;;;;;;;3.20;0.85;;;11.10;99.90;;;;;;5074303;28;20025;-61
2023/04/24 11:35:08;;;;;;;5.20;1.38;;;11.20;99.90;;;;;;5076204;28;20315;-63
2023/04/24 11:37:42;;;;;;;5.88;1.13;;;11.20;99.90;;;;;;5083612;28;20515;-62
2023/04/24 11:40:10;;;;;;;6.22;0.93;;;11.10;99.90;;;;;;5076172;28;20109;-62
2023/04/24 11:42:43;;;;;;;2.67;1.00;;;10.90;99.90;;;;;;5074569;28;20388;-63
2023/04/24 11:45:10;;;;;;;3.00;0.70;;;10.80;99.90;;;;;;5075330;28;20415;-63
2023/04/24 11:47:37;;;;;;;3.83;1.17;;;10.80;99.90;;;;;;5105313;28;20024;-63
2023/04/24 11:50:05;;;;;;;3.15;0.50;;;11.20;99.90;;;;;;5076903;28;20055;-63
2023/04/24 11:52:31;;;;;;;3.42;0.75;;;11.20;99.90;;;;;;5077583;28;20358;-61
2023/04/24 11:54:57;;;;;;;3.13;0.80;;;11.50;99.90;;;;;;5077411;28;20094;-62
2023/04/24 11:57:27;;;;;;;1.63;0.60;;;11.40;99.90;;;;;;5077404;28;20056;-63
2023/04/24 11:59:53;;;;;;;3.60;0.80;;;11.30;99.90;;;;;;5076812;28;20025;-63
2023/04/24 12:02:23;;;;;;;8.45;1.13;;;11.60;99.90;;;;;;5077720;28;20045;-63
2023/04/24 12:04:49;;;;;;;1.33;0.75;;;11.80;99.90;;;;;;5076873;28;20373;-63
2023/04/24 12:07:15;;;;;;;1.88;0.70;;;11.80;99.90;;;;;;5077258;28;20103;-75
2023/04/24 12:10:01;;;;;;;3.27;1.00;;;11.80;99.90;;;;;;5077724;28;20455;-62
2023/04/24 12:12:28;;;;;;;5.88;1.13;;;11.90;99.90;;;;;;5073451;28;20051;-63
2023/04/24 12:14:55;;;;;;;;;;;11.80;99.90;;;;;;5077416;28;20021;-63
2023/04/24 12:17:30;;;;;;;8.25;1.58;;;11.50;99.90;;;;;;5074055;28;20010;-64
2023/04/24 12:20:07;;;;;;;5.30;1.52;;;11.20;99.90;;;;;;5059633;28;20485;-63
2023/04/24 12:22:59;;;;;;;7.47;1.15;;;10.80;99.90;;;;;;5057774;28;20412;-65
2023/04/24 12:25:29;;;;;;;13.20;1.65;;;10.40;99.90;;;;;;5060480;28;20044;-64
2023/04/24 12:27:56;;;;;;;8.38;1.63;;;10.00;99.90;;;;;;5057446;28;20025;-64
2023/04/24 12:30:28;;;;;;;5.50;1.45;;;9.70;99.90;;;;;;5072636;28;20086;-63
2023/04/24 12:32:54;;;;;;;9.02;1.30;;;9.40;99.90;;;;;;5059953;28;20036;-64
2023/04/24 12:35:22;;;;;;;7.10;1.52;;;9.10;99.90;;;;;;5073606;28;20052;-64
2023/04/24 12:37:48;;;;;;;9.00;2.15;;;9.00;99.90;;;;;;5066005;28;20468;-66
2023/04/24 12:40:14;;;;;;;9.90;2.03;;;9.10;99.90;;;;;;5063294;28;20052;-64
2023/04/24 12:42:48;;;;;;;14.50;2.70;;;9.20;99.90;;;;;;5059976;28;20446;-66
2023/04/24 12:45:15;;;;;;;12.10;2.20;;;9.30;99.90;;;;;;5056873;28;20090;-66
2023/04/24 12:47:43;;;;;;;10.57;2.33;;;9.50;99.90;;;;;;5057192;28;20347;-64
2023/04/24 12:50:10;;;;;;;12.10;2.63;;;9.80;99.90;;;;;;5070675;28;20070;-64
2023/04/24 12:52:36;;;;;;;19.30;2.42;;;9.90;99.90;;;;;;5061348;28;20408;-66
2023/04/24 12:55:04;;;;;;;21.02;1.92;;;10.10;99.90;;;;;;5089582;28;20029;-65